Energie Solaire sur 24 Heures


  Une ligne irrégulière au-dessus de la ligne du théorique
  maximum provient généralement de la lumière réfléchie
  par les nuages.
Sunshine for 51 hours
  Ensoleillement Soleil ?  O
  Aujourd'hui maximum (W/m2) : 846 @ 13:22
  Energie solaire en ce moment (W/m2): 0
   (~% du Théorique max)
  Lever du soleil: 07:13
  Coucher du soleil: 20:39
  Durée du jour: 13:26
 

Heures Solaire - Aujourd'hui et les 7 deniers Jours


  Date Heures  Sunshine Hours for 8 days
  Heures Solaire Aujourd'hui          
  Heures Solaire Hier  12,2
  Heures Solaire 11/04/24  10,5
  Heures Solaire 10/04/24  7,9
  Heures Solaire 09/04/24  6,8
  Heures Solaire 08/04/24  3,9
  Heures Solaire 07/04/24  3,6
  Heures Solaire 06/04/24  4,2
   

Pluie/Evapotranspiration - Humidité Gain/Perte - Aujourd'hui + les derniers 28 Jours

L´évapotranspiration est calculée à partir de: la température de l´air, l´humidité relative , la moyenne de la vitesse du vent et du rayonnement solaire.
Date Pluie ( mm ) Evapotranspiration Gain quotidien(+)/Perte(-) Gain accumulé(+)/Perte(-)
      ( mm )   ( mm )   ( mm )  
Aujourd'hui 0.00     0.00 à :21:00      
Hier 0.00   +4.00   -4.00   -4.00   De 21:00 à Hier
11/04/2024 0.00   +3.00   -3.00   -7.00   De 21:00 au 11/04/2024
10/04/2024 0.00   +2.00   -2.00   -9.00   De 21:00 au 10/04/2024
09/04/2024 +4.00   +2.00   +2.00   -7.00   De 21:00 au 09/04/2024
08/04/2024 +19.00   +2.00   +17.00   +10.00   De 21:00 au 08/04/2024
07/04/2024 0.00   +2.00   -2.00   +8.00   De 21:00 au 07/04/2024
06/04/2024 0.00   +4.00   -4.00   +4.00   De 21:00 au 06/04/2024
05/04/2024 0.00   +4.00   -4.00   0.00   De 21:00 au 05/04/2024
04/04/2024 0.00   +2.00   -2.00   -2.00   De 21:00 au 04/04/2024
03/04/2024 +12.00   +2.00   +10.00   +8.00   De 21:00 au 03/04/2024
02/04/2024 +2.00   +2.00   0.00   +8.00   De 21:00 au 02/04/2024
01/04/2024 +9.00   +1.00   +8.00   +16.00   De 21:00 au 01/04/2024
31/03/2024 +9.00   +1.00   +8.00   +24.00   De 21:00 au 31/03/2024
30/03/2024 +8.00   +2.00   +6.00   +30.00   De 21:00 au 30/03/2024
29/03/2024 +59.00   0.00   +59.00   +89.00   De 21:00 au 29/03/2024
28/03/2024 +6.00   +2.00   +4.00   +93.00   De 21:00 au 28/03/2024
27/03/2024 +5.00   +1.00   +4.00   +97.00   De 21:00 au 27/03/2024
26/03/2024 +22.00   0.00   +22.00   +119.00   De 21:00 au 26/03/2024
25/03/2024 0.00   +2.00   -2.00   +117.00   De 21:00 au 25/03/2024
24/03/2024 +1.00   +1.00   0.00   +117.00   De 21:00 au 24/03/2024
23/03/2024 0.00   +2.00   -2.00   +115.00   De 21:00 au 23/03/2024
22/03/2024 0.00   +3.00   -3.00   +112.00   De 21:00 au 22/03/2024
21/03/2024 0.00   +2.00   -2.00   +110.00   De 21:00 au 21/03/2024
20/03/2024 0.00   +2.00   -2.00   +108.00   De 21:00 au 20/03/2024
19/03/2024 0.00   +2.00   -2.00   +106.00   De 21:00 au 19/03/2024
18/03/2024 0.00   +2.00   -2.00   +104.00   De 21:00 au 18/03/2024
17/03/2024 0.00   +1.00   -1.00   +103.00   De 21:00 au 17/03/2024
16/03/2024 0.00   +1.00   -1.00   +102.00   De 21:00 au 16/03/2024